Time;durP1;ratioP1;P1;durP2;ratioP2;P2;SDS_P1;SDS_P2;PMS_P1;PMS_P2;Temp;Humidity;BMP_temperature;BMP_pressure;BME280_temperature;BME280_humidity;BME280_pressure;Samples;Min_cycle;Max_cycle;Signal;HPM_P1;HPM_P2
2023/07/18 00:00:37;;;;;;;11.23;5.40;;;13.80;99.90;;;;;;6094900;23;20314;-84
2023/07/18 00:03:06;;;;;;;7.00;4.15;;;13.70;99.90;;;;;;6094999;23;20025;-84
2023/07/18 00:05:33;;;;;;;9.18;4.97;;;13.70;99.90;;;;;;6094114;23;20019;-84
2023/07/18 00:07:59;;;;;;;10.88;5.45;;;13.60;99.90;;;;;;6093594;23;20050;-84
2023/07/18 00:10:25;;;;;;;7.00;4.28;;;13.60;99.90;;;;;;6070581;23;20025;-84
2023/07/18 00:12:50;;;;;;;8.05;4.80;;;13.60;99.90;;;;;;6070006;23;20454;-84
2023/07/18 00:15:17;;;;;;;10.43;4.93;;;13.60;99.90;;;;;;6070173;23;20018;-84
2023/07/18 00:17:43;;;;;;;8.57;4.72;;;13.60;99.90;;;;;;6094066;23;20019;-84
2023/07/18 00:20:17;;;;;;;7.95;5.10;;;13.60;99.90;;;;;;6094157;23;20050;-84
2023/07/18 00:22:44;;;;;;;8.60;4.85;;;13.60;99.90;;;;;;6071880;23;20475;-84
2023/07/18 00:25:13;;;;;;;7.28;4.72;;;13.60;99.90;;;;;;6070926;23;20388;-84
2023/07/18 00:27:43;;;;;;;7.00;4.93;;;13.60;99.90;;;;;;6094946;23;20060;-84
2023/07/18 00:30:12;;;;;;;8.50;4.50;;;13.60;99.90;;;;;;6070567;23;20015;-84
2023/07/18 00:32:39;;;;;;;8.38;4.65;;;13.60;99.90;;;;;;6094300;23;20088;-84
2023/07/18 00:35:05;;;;;;;8.40;4.68;;;13.60;99.90;;;;;;6094408;23;20041;-84
2023/07/18 00:37:31;;;;;;;8.07;4.60;;;13.60;99.90;;;;;;6093810;23;20026;-84
2023/07/18 00:39:57;;;;;;;7.38;4.55;;;13.60;99.90;;;;;;6093401;23;20026;-84
2023/07/18 00:42:23;;;;;;;8.27;4.68;;;13.60;99.90;;;;;;6045821;23;20104;-84
2023/07/18 00:44:50;;;;;;;8.95;5.00;;;13.60;99.90;;;;;;6046176;23;20011;-84
2023/07/18 00:47:16;;;;;;;11.48;5.20;;;13.60;99.90;;;;;;6094197;23;20017;-84
2023/07/18 00:49:43;;;;;;;9.18;4.30;;;13.60;99.90;;;;;;6093833;23;20073;-84
2023/07/18 00:52:10;;;;;;;10.07;5.03;;;13.50;99.90;;;;;;6070708;23;20347;-84
2023/07/18 00:54:37;;;;;;;9.38;4.75;;;13.50;99.90;;;;;;6094175;23;20025;-84
2023/07/18 00:57:03;;;;;;;8.90;4.53;;;13.50;99.90;;;;;;6093996;23;20014;-84
2023/07/18 00:59:30;;;;;;;8.68;4.88;;;13.50;99.90;;;;;;6070567;23;20113;-84
2023/07/18 01:01:56;;;;;;;5.95;4.72;;;13.50;99.90;;;;;;6094350;23;20011;-84
2023/07/18 01:04:21;;;;;;;8.80;5.25;;;13.50;99.90;;;;;;6094124;23;20019;-84
2023/07/18 01:06:48;;;;;;;9.00;5.20;;;13.50;99.90;;;;;;6093936;23;20037;-84
2023/07/18 01:09:14;;;;;;;7.53;4.80;;;13.50;99.90;;;;;;6070159;23;20179;-84
2023/07/18 01:11:40;;;;;;;7.45;4.55;;;13.50;99.90;;;;;;6070808;23;20377;-84
2023/07/18 01:14:05;;;;;;;9.77;5.20;;;13.50;99.90;;;;;;6046358;23;20022;-84
2023/07/18 01:16:31;;;;;;;10.52;5.45;;;13.50;99.90;;;;;;6070183;23;20018;-84
2023/07/18 01:18:57;;;;;;;11.73;5.60;;;13.50;99.90;;;;;;6070238;23;20018;-84
2023/07/18 01:21:23;;;;;;;10.38;5.50;;;13.50;99.90;;;;;;6094026;23;20022;-84
2023/07/18 01:23:49;;;;;;;8.32;5.55;;;13.50;99.90;;;;;;6046538;23;20050;-84
2023/07/18 01:26:15;;;;;;;11.35;5.70;;;13.40;99.90;;;;;;6070022;23;20374;-84
2023/07/18 01:28:41;;;;;;;7.82;5.40;;;13.40;99.90;;;;;;6094120;23;20011;-84
2023/07/18 01:31:07;;;;;;;11.20;5.65;;;13.40;99.90;;;;;;6093440;23;20093;-84
2023/07/18 01:33:33;;;;;;;11.02;6.13;;;13.30;99.90;;;;;;6069912;23;20664;-84
2023/07/18 01:35:59;;;;;;;9.57;5.95;;;13.40;99.90;;;;;;6093981;23;20056;-85
2023/07/18 01:38:31;;;;;;;13.57;6.03;;;13.30;99.90;;;;;;6094056;23;20053;-84
2023/07/18 01:41:01;;;;;;;10.55;6.07;;;13.30;99.90;;;;;;6093830;23;20022;-84
2023/07/18 01:43:27;;;;;;;11.60;6.20;;;13.30;99.90;;;;;;6069315;23;20612;-84
2023/07/18 01:45:57;;;;;;;10.32;5.85;;;13.30;99.90;;;;;;6093095;23;20018;-84
2023/07/18 01:48:23;;;;;;;11.95;5.70;;;13.30;99.90;;;;;;6094020;23;20046;-84
2023/07/18 01:50:49;;;;;;;10.25;5.90;;;13.30;99.90;;;;;;6070028;23;20014;-84
2023/07/18 01:53:14;;;;;;;9.20;5.82;;;13.30;99.90;;;;;;6093933;23;20014;-84
2023/07/18 01:55:41;;;;;;;12.05;6.28;;;13.30;99.90;;;;;;6069622;23;20014;-84
2023/07/18 01:58:07;;;;;;;9.70;6.07;;;13.30;99.90;;;;;;6093771;23;20022;-85
2023/07/18 02:00:35;;;;;;;8.95;5.70;;;13.30;99.90;;;;;;6093610;23;20018;-84
2023/07/18 02:03:01;;;;;;;11.98;6.00;;;13.30;99.90;;;;;;6093741;23;20461;-85
2023/07/18 02:05:28;;;;;;;11.13;5.25;;;13.30;99.90;;;;;;6093495;23;20062;-85
2023/07/18 02:07:55;;;;;;;12.25;6.00;;;13.30;99.90;;;;;;6094007;23;20145;-84
2023/07/18 02:10:21;;;;;;;11.20;5.60;;;13.20;99.90;;;;;;6093415;23;20014;-84
2023/07/18 02:12:56;;;;;;;9.80;5.68;;;13.20;99.90;;;;;;6093406;23;20021;-84
2023/07/18 02:15:22;;;;;;;10.60;5.70;;;13.20;99.90;;;;;;6093043;23;20097;-84
2023/07/18 02:17:48;;;;;;;10.18;6.18;;;13.20;99.90;;;;;;6092912;23;20081;-84
2023/07/18 02:20:14;;;;;;;9.82;5.78;;;13.10;99.90;;;;;;6093360;23;20101;-85
2023/07/18 02:22:42;;;;;;;10.68;6.85;;;13.10;99.90;;;;;;6069606;23;20049;-84
2023/07/18 02:25:09;;;;;;;13.43;6.07;;;13.00;99.90;;;;;;6093713;23;20061;-84
2023/07/18 02:27:39;;;;;;;10.77;5.90;;;13.10;99.90;;;;;;6069711;23;20014;-85
2023/07/18 02:30:09;;;;;;;11.82;6.30;;;13.10;99.90;;;;;;6093994;23;20061;-84
2023/07/18 02:32:35;;;;;;;11.48;5.35;;;13.10;99.90;;;;;;6093570;23;20019;-84
2023/07/18 02:35:01;;;;;;;12.00;5.78;;;13.00;99.90;;;;;;6069670;23;20398;-84
2023/07/18 02:37:27;;;;;;;12.90;6.43;;;13.00;99.90;;;;;;6093585;23;20041;-84
2023/07/18 02:39:54;;;;;;;10.23;5.97;;;13.10;99.90;;;;;;6069828;23;20029;-84
2023/07/18 02:42:20;;;;;;;8.60;5.65;;;13.00;99.90;;;;;;6094972;23;20019;-84
2023/07/18 02:44:47;;;;;;;11.30;6.65;;;13.10;99.90;;;;;;6071661;23;20081;-84
2023/07/18 02:47:13;;;;;;;10.60;5.93;;;13.10;99.90;;;;;;6095530;23;20723;-84
2023/07/18 02:49:39;;;;;;;10.40;5.78;;;13.10;99.90;;;;;;6095745;23;20015;-84
2023/07/18 02:52:06;;;;;;;12.00;6.25;;;13.10;99.90;;;;;;6097431;23;20014;-84
2023/07/18 02:54:32;;;;;;;9.27;5.78;;;13.00;99.90;;;;;;6071582;23;20072;-84
2023/07/18 02:56:58;;;;;;;10.48;5.97;;;13.10;99.90;;;;;;6071551;23;20437;-84
2023/07/18 02:59:25;;;;;;;10.70;5.95;;;13.00;99.90;;;;;;6095612;23;20022;-84
2023/07/18 03:01:54;;;;;;;9.80;5.80;;;13.00;99.90;;;;;;6072072;23;20018;-85
2023/07/18 03:04:21;;;;;;;10.45;6.82;;;13.00;99.90;;;;;;6072153;23;20011;-85
2023/07/18 03:06:56;;;;;;;8.75;5.65;;;13.00;99.90;;;;;;6071296;23;20066;-84
2023/07/18 03:09:22;;;;;;;9.98;6.03;;;13.00;99.90;;;;;;6095346;23;20480;-84
2023/07/18 03:11:51;;;;;;;10.57;5.75;;;13.00;99.90;;;;;;6095417;23;20045;-84
2023/07/18 03:14:17;;;;;;;10.15;6.10;;;13.00;99.90;;;;;;6095525;23;20456;-84
2023/07/18 03:16:45;;;;;;;9.43;5.55;;;13.00;99.90;;;;;;6095242;23;20042;-84
2023/07/18 03:19:11;;;;;;;10.98;5.88;;;12.90;99.90;;;;;;6070935;23;20014;-84
2023/07/18 03:21:37;;;;;;;11.73;6.88;;;13.00;99.90;;;;;;6071191;23;20018;-84
2023/07/18 03:24:07;;;;;;;10.77;5.70;;;13.00;99.90;;;;;;6095082;23;20050;-84
2023/07/18 03:26:34;;;;;;;10.60;6.35;;;12.90;99.90;;;;;;6071755;23;20449;-85
2023/07/18 03:29:00;;;;;;;12.88;6.28;;;12.90;99.90;;;;;;6071188;23;20407;-84
2023/07/18 03:31:25;;;;;;;9.80;6.03;;;12.90;99.90;;;;;;6095014;23;20014;-84
2023/07/18 03:33:51;;;;;;;10.45;6.28;;;12.90;99.90;;;;;;6046676;23;20023;-84
2023/07/18 03:36:17;;;;;;;10.95;6.53;;;12.90;99.90;;;;;;6070610;23;20014;-84
2023/07/18 03:38:43;;;;;;;9.52;6.18;;;12.90;99.90;;;;;;6094248;23;20046;-84
2023/07/18 03:41:08;;;;;;;14.75;6.63;;;12.90;99.90;;;;;;6094031;23;20484;-84
2023/07/18 03:43:34;;;;;;;14.38;6.82;;;12.90;99.90;;;;;;6070785;23;20025;-84
2023/07/18 03:46:00;;;;;;;11.80;7.00;;;12.90;99.90;;;;;;6095011;23;20015;-84
2023/07/18 03:48:26;;;;;;;17.08;7.40;;;12.90;99.90;;;;;;6047509;23;20015;-85
2023/07/18 03:50:52;;;;;;;11.77;6.53;;;12.90;99.90;;;;;;6071447;23;20019;-85
2023/07/18 03:53:19;;;;;;;12.02;6.47;;;12.90;99.90;;;;;;6094556;23;20015;-84
2023/07/18 03:55:44;;;;;;;12.18;7.07;;;12.90;99.90;;;;;;6070578;23;20015;-85
2023/07/18 03:58:10;;;;;;;9.57;6.35;;;12.90;99.90;;;;;;6071394;23;20014;-84
2023/07/18 04:00:36;;;;;;;13.48;6.57;;;12.80;99.90;;;;;;6071050;23;20077;-84
2023/07/18 04:03:02;;;;;;;11.82;6.32;;;12.90;99.90;;;;;;6094646;23;20056;-84
2023/07/18 04:05:27;;;;;;;10.35;6.63;;;12.90;99.90;;;;;;6046752;23;20094;-84
2023/07/18 04:07:53;;;;;;;14.02;7.20;;;12.90;99.90;;;;;;6070460;23;20093;-85
2023/07/18 04:10:19;;;;;;;13.50;7.05;;;12.90;99.90;;;;;;6070455;23;20461;-84
2023/07/18 04:12:45;;;;;;;10.73;6.63;;;12.90;99.90;;;;;;6047145;23;20085;-84
2023/07/18 04:15:12;;;;;;;11.45;6.30;;;12.90;99.90;;;;;;6094988;23;20075;-84
2023/07/18 04:17:38;;;;;;;10.75;6.05;;;12.90;99.90;;;;;;6070931;23;20321;-84
2023/07/18 04:20:05;;;;;;;13.43;6.70;;;13.00;99.90;;;;;;6094987;23;20604;-84
2023/07/18 04:22:32;;;;;;;13.95;6.80;;;13.00;99.90;;;;;;6093983;23;20089;-84
2023/07/18 04:24:58;;;;;;;10.63;6.13;;;13.00;99.90;;;;;;6070193;23;20014;-84
2023/07/18 04:27:26;;;;;;;11.18;6.15;;;13.00;99.90;;;;;;6095110;23;20021;-85
2023/07/18 04:29:52;;;;;;;11.35;6.72;;;13.00;99.90;;;;;;6071221;23;20014;-84
2023/07/18 04:32:18;;;;;;;10.98;6.57;;;13.00;99.90;;;;;;6071150;23;20014;-84
2023/07/18 04:34:46;;;;;;;10.40;6.20;;;13.10;99.90;;;;;;6071352;23;20021;-84
2023/07/18 04:37:12;;;;;;;9.95;6.68;;;13.10;99.90;;;;;;6070719;23;20018;-84
2023/07/18 04:39:38;;;;;;;10.73;5.70;;;13.10;99.90;;;;;;6094763;23;20109;-84
2023/07/18 04:42:04;;;;;;;12.18;6.00;;;13.10;99.90;;;;;;6070604;23;20018;-85
2023/07/18 04:44:30;;;;;;;12.68;6.45;;;13.20;99.90;;;;;;6046868;23;20065;-84
2023/07/18 04:46:55;;;;;;;12.40;6.95;;;13.20;99.90;;;;;;6094109;23;20014;-84
2023/07/18 04:49:25;;;;;;;11.77;6.78;;;13.20;99.90;;;;;;6094461;23;20100;-84
2023/07/18 04:51:51;;;;;;;10.18;6.45;;;13.20;99.90;;;;;;6071082;23;20050;-84
2023/07/18 04:54:20;;;;;;;11.13;6.40;;;13.30;99.90;;;;;;6094225;23;20018;-84
2023/07/18 04:56:45;;;;;;;13.30;6.97;;;13.30;99.90;;;;;;6093947;23;20011;-84
2023/07/18 04:59:11;;;;;;;12.07;6.50;;;13.30;99.90;;;;;;6070580;23;20093;-85
2023/07/18 05:01:40;;;;;;;14.88;6.80;;;13.40;99.90;;;;;;6046609;23;20123;-85
2023/07/18 05:04:05;;;;;;;12.23;6.25;;;13.40;99.90;;;;;;6093867;23;20014;-84
2023/07/18 05:06:31;;;;;;;10.82;6.30;;;13.40;99.90;;;;;;6070614;23;20353;-85
2023/07/18 05:08:57;;;;;;;13.38;7.13;;;13.50;99.90;;;;;;6094532;23;20093;-85
2023/07/18 05:11:22;;;;;;;14.35;6.53;;;13.50;99.90;;;;;;6046730;23;20014;-85
2023/07/18 05:13:48;;;;;;;15.23;6.63;;;13.50;99.90;;;;;;6070775;23;20010;-85
2023/07/18 05:16:14;;;;;;;12.18;5.70;;;13.50;99.90;;;;;;6070401;23;20046;-84
2023/07/18 05:18:40;;;;;;;11.48;6.13;;;13.60;99.90;;;;;;6094104;23;20452;-85
2023/07/18 05:21:07;;;;;;;15.63;6.35;;;13.60;99.90;;;;;;6071357;23;20022;-84
2023/07/18 05:23:33;;;;;;;11.52;5.95;;;13.60;99.90;;;;;;6071748;23;20070;-86
2023/07/18 05:25:59;;;;;;;14.13;5.90;;;13.70;99.90;;;;;;6070473;23;20019;-83
2023/07/18 05:28:24;;;;;;;9.02;5.90;;;13.70;99.90;;;;;;6094225;23;20448;-84
2023/07/18 05:30:50;;;;;;;14.07;6.45;;;13.80;99.90;;;;;;6094077;23;20049;-84
2023/07/18 05:33:15;;;;;;;12.18;6.13;;;13.80;99.90;;;;;;6094647;23;20014;-84
2023/07/18 05:35:41;;;;;;;14.70;6.43;;;13.90;99.90;;;;;;6070238;23;20023;-84
2023/07/18 05:38:07;;;;;;;13.35;6.40;;;14.00;99.90;;;;;;6046298;23;20022;-84
2023/07/18 05:40:33;;;;;;;11.73;5.93;;;14.10;99.90;;;;;;6069885;23;20023;-84
2023/07/18 05:42:59;;;;;;;11.23;5.88;;;14.10;99.90;;;;;;6070425;23;20018;-84
2023/07/18 05:45:25;;;;;;;11.60;6.00;;;14.20;99.90;;;;;;6093969;23;20349;-84
2023/07/18 05:47:50;;;;;;;11.40;6.20;;;14.30;99.90;;;;;;6094778;23;20033;-84
2023/07/18 05:50:17;;;;;;;14.40;5.88;;;14.30;99.90;;;;;;6071131;23;20034;-83
2023/07/18 05:52:42;;;;;;;14.93;6.13;;;14.40;99.90;;;;;;6094818;23;20015;-83
2023/07/18 05:55:08;;;;;;;12.38;6.00;;;14.50;99.90;;;;;;6071424;23;20021;-84
2023/07/18 05:57:34;;;;;;;12.00;6.18;;;14.60;99.90;;;;;;6095244;23;20025;-82
2023/07/18 06:00:01;;;;;;;11.02;5.70;;;14.70;99.90;;;;;;6070801;23;20018;-83
2023/07/18 06:02:27;;;;;;;12.52;5.68;;;14.70;99.90;;;;;;6071281;23;20365;-83
2023/07/18 06:04:53;;;;;;;12.15;5.50;;;14.80;99.90;;;;;;6047096;23;20018;-83
2023/07/18 06:07:18;;;;;;;15.30;5.85;;;14.80;99.90;;;;;;6046907;23;20102;-83
2023/07/18 06:09:44;;;;;;;14.27;5.88;;;14.80;99.90;;;;;;6071325;23;20025;-83
2023/07/18 06:12:11;;;;;;;9.55;5.90;;;14.90;99.90;;;;;;6094319;23;20449;-82
2023/07/18 06:14:38;;;;;;;16.05;5.80;;;15.00;99.90;;;;;;6069545;23;20025;-80
2023/07/18 06:17:04;;;;;;;13.20;6.07;;;15.10;99.90;;;;;;6069893;23;20014;-81
2023/07/18 06:19:30;;;;;;;12.35;5.28;;;15.30;99.90;;;;;;6045970;23;20010;-81
2023/07/18 06:21:55;;;;;;;11.23;5.72;;;15.50;99.90;;;;;;6069736;23;20047;-80
2023/07/18 06:24:21;;;;;;;11.80;5.78;;;15.60;99.90;;;;;;6069447;23;20093;-80
2023/07/18 06:26:49;;;;;;;10.75;5.72;;;15.80;99.90;;;;;;6092678;23;20081;-81
2023/07/18 06:29:19;;;;;;;9.50;5.75;;;15.90;99.90;;;;;;6068994;23;20093;-81
2023/07/18 06:31:45;;;;;;;11.13;5.45;;;16.00;99.90;;;;;;6093192;23;20010;-80
2023/07/18 06:34:11;;;;;;;18.98;5.70;;;16.00;99.90;;;;;;6068918;23;20073;-81
2023/07/18 06:36:37;;;;;;;13.45;4.80;;;16.00;99.90;;;;;;6069530;23;20026;-81
2023/07/18 06:39:05;;;;;;;11.60;5.28;;;16.00;99.90;;;;;;6093959;23;20441;-81
2023/07/18 06:41:32;;;;;;;9.75;4.70;;;16.10;99.90;;;;;;6093646;23;20700;-80
2023/07/18 06:43:58;;;;;;;10.98;4.30;;;16.10;99.90;;;;;;6093596;23;20089;-81
2023/07/18 06:46:24;;;;;;;11.38;5.40;;;16.10;99.90;;;;;;6069660;23;20456;-80
2023/07/18 06:48:52;;;;;;;10.98;5.30;;;16.10;99.90;;;;;;6069647;23;20010;-81
2023/07/18 06:51:18;;;;;;;8.40;4.70;;;16.20;99.90;;;;;;6092957;23;20021;-81
2023/07/18 06:53:44;;;;;;;12.30;5.28;;;16.20;99.90;;;;;;6092366;23;20033;-80
2023/07/18 06:56:09;;;;;;;10.07;4.53;;;16.30;99.90;;;;;;6092306;23;20018;-81
2023/07/18 06:58:35;;;;;;;14.60;4.90;;;16.40;99.90;;;;;;6067998;23;20093;-80
2023/07/18 07:01:01;;;;;;;11.23;4.75;;;16.60;99.90;;;;;;6044830;23;20099;-80
2023/07/18 07:03:28;;;;;;;11.43;4.82;;;16.60;99.90;;;;;;6093172;23;20048;-80
2023/07/18 07:05:53;;;;;;;14.63;5.22;;;16.70;99.90;;;;;;6069862;23;20014;-81
2023/07/18 07:08:21;;;;;;;10.65;4.95;;;16.80;99.90;;;;;;6069624;23;20069;-80
2023/07/18 07:10:46;;;;;;;10.88;4.80;;;16.80;99.90;;;;;;6069959;23;20049;-80
2023/07/18 07:13:12;;;;;;;10.52;4.43;;;16.90;99.90;;;;;;6093981;23;20097;-80
2023/07/18 07:15:38;;;;;;;10.50;5.00;;;16.90;99.90;;;;;;6093499;23;20022;-81
2023/07/18 07:18:05;;;;;;;12.45;5.15;;;17.00;99.90;;;;;;6094093;23;20021;-81
2023/07/18 07:20:32;;;;;;;12.73;4.78;;;17.20;99.90;;;;;;6093501;23;20018;-82
2023/07/18 07:22:58;;;;;;;11.90;4.70;;;17.30;99.90;;;;;;6093308;23;20344;-83
2023/07/18 07:25:28;;;;;;;10.45;4.32;;;17.40;99.90;;;;;;6092926;23;20019;-83
2023/07/18 07:27:53;;;;;;;12.07;4.80;;;17.50;99.90;;;;;;6092944;23;20372;-83
2023/07/18 07:30:20;;;;;;;11.32;4.50;;;17.60;99.90;;;;;;6069285;23;20093;-82
2023/07/18 07:32:53;;;;;;;9.13;4.50;;;17.60;99.90;;;;;;6094903;23;20015;-80
2023/07/18 07:35:20;;;;;;;11.85;5.10;;;17.70;99.90;;;;;;6071694;23;20341;-79
2023/07/18 07:37:50;;;;;;;10.18;4.40;;;17.70;99.90;;;;;;6095001;23;20085;-80
2023/07/18 07:40:16;;;;;;;10.65;4.70;;;17.60;99.90;;;;;;6070786;23;20023;-80
2023/07/18 07:42:44;;;;;;;13.10;4.93;;;17.60;99.90;;;;;;6071020;23;20023;-80
2023/07/18 07:45:10;;;;;;;12.55;4.63;;;17.50;99.90;;;;;;6070881;23;20040;-80
2023/07/18 07:47:36;;;;;;;12.25;4.40;;;17.60;99.90;;;;;;6095249;23;20011;-80
2023/07/18 07:50:07;;;;;;;10.95;4.50;;;17.50;99.90;;;;;;6094645;23;20444;-80
2023/07/18 07:52:32;;;;;;;11.93;4.43;;;17.50;99.90;;;;;;6095104;23;20017;-80
2023/07/18 07:54:58;;;;;;;16.25;4.53;;;17.50;99.90;;;;;;6047211;23;20022;-80
2023/07/18 07:57:24;;;;;;;11.13;4.47;;;17.40;99.90;;;;;;6119187;23;20424;-81
2023/07/18 07:59:51;;;;;;;12.05;4.20;;;17.50;99.90;;;;;;6070475;23;20021;-80
2023/07/18 08:02:19;;;;;;;9.98;4.00;;;17.50;99.90;;;;;;6094815;23;20023;-80
2023/07/18 08:04:45;;;;;;;15.95;5.10;;;17.70;99.90;;;;;;6092911;23;20480;-80
2023/07/18 08:07:11;;;;;;;10.25;4.80;;;17.80;99.90;;;;;;6093069;23;20014;-80
2023/07/18 08:09:37;;;;;;;12.23;4.65;;;17.80;99.90;;;;;;6067936;23;20464;-80
2023/07/18 08:12:04;;;;;;;12.02;4.88;;;17.80;99.90;;;;;;6068759;23;20332;-80
2023/07/18 08:14:34;;;;;;;10.00;4.72;;;17.80;99.90;;;;;;6092933;23;20010;-81
2023/07/18 08:17:01;;;;;;;9.30;4.60;;;17.80;99.90;;;;;;6047037;23;20018;-80
2023/07/18 08:19:27;;;;;;;13.82;4.70;;;17.80;99.90;;;;;;6094046;23;20022;-81
2023/07/18 08:21:53;;;;;;;12.55;4.30;;;17.70;99.90;;;;;;6094364;23;20018;-81
2023/07/18 08:24:19;;;;;;;13.30;4.55;;;17.70;99.90;;;;;;6069923;23;20018;-80
2023/07/18 08:26:45;;;;;;;11.35;4.70;;;17.80;99.90;;;;;;6093688;23;20015;-81
2023/07/18 08:29:11;;;;;;;13.07;4.70;;;17.80;99.90;;;;;;6069014;23;20018;-81
2023/07/18 08:31:36;;;;;;;10.80;4.65;;;17.80;99.90;;;;;;6069663;23;20014;-80
2023/07/18 08:34:02;;;;;;;17.08;5.35;;;17.90;99.90;;;;;;6069594;23;20010;-80
2023/07/18 08:36:29;;;;;;;10.50;4.72;;;17.90;99.90;;;;;;6070592;23;20073;-81
2023/07/18 08:38:55;;;;;;;13.07;5.20;;;18.00;99.90;;;;;;6046977;23;20097;-80
2023/07/18 08:41:21;;;;;;;12.45;5.10;;;18.10;99.90;;;;;;6070271;23;20386;-80
2023/07/18 08:43:48;;;;;;;11.68;4.93;;;18.20;99.90;;;;;;6093890;23;20057;-80
2023/07/18 08:46:15;;;;;;;9.73;5.18;;;18.30;99.90;;;;;;6093867;23;20015;-81
2023/07/18 08:48:44;;;;;;;9.90;4.80;;;18.40;99.90;;;;;;6045429;23;20051;-80
2023/07/18 08:51:11;;;;;;;10.95;5.70;;;18.60;99.90;;;;;;6069091;23;20021;-80
2023/07/18 08:53:41;;;;;;;13.82;5.10;;;18.80;99.90;;;;;;6092789;23;20078;-80
2023/07/18 08:56:10;;;;;;;13.35;5.85;;;19.00;99.90;;;;;;6092641;23;20022;-81
2023/07/18 08:58:37;;;;;;;13.10;5.28;;;19.00;99.90;;;;;;6092752;23;20011;-80
2023/07/18 09:01:04;;;;;;;11.48;5.22;;;19.20;99.90;;;;;;6068899;23;20424;-80
2023/07/18 09:03:29;;;;;;;13.02;5.03;;;19.20;99.90;;;;;;6092269;23;20015;-80
2023/07/18 09:05:57;;;;;;;11.18;4.32;;;19.20;99.90;;;;;;6045191;23;20050;-80
2023/07/18 09:08:23;;;;;;;11.05;4.70;;;19.20;99.90;;;;;;6069522;23;20064;-79
2023/07/18 09:11:03;;;;;;;12.18;4.50;;;19.40;99.90;;;;;;6090810;23;20019;-79
2023/07/18 09:13:36;;;;;;;13.70;4.40;;;19.70;99.90;;;;;;6091551;23;20014;-79
2023/07/18 09:16:13;;;;;;;10.60;4.75;;;19.90;99.90;;;;;;6090759;23;20018;-79
2023/07/18 09:18:43;;;;;;;12.32;3.80;;;20.20;99.90;;;;;;6091529;23;20021;-79
2023/07/18 09:21:10;;;;;;;10.20;3.35;;;20.40;99.90;;;;;;6066992;23;20514;-80
2023/07/18 09:23:43;;;;;;;9.25;3.42;;;20.40;99.90;;;;;;6091823;23;20329;-79
2023/07/18 09:26:12;;;;;;;7.75;3.20;;;20.40;99.90;;;;;;6090813;23;20090;-78
2023/07/18 09:28:41;;;;;;;7.47;2.97;;;20.50;99.90;;;;;;6067847;23;20093;-79
2023/07/18 09:31:21;;;;;;;7.43;2.90;;;20.70;99.90;;;;;;6091294;23;20018;-79
2023/07/18 09:33:47;;;;;;;10.93;2.67;;;20.90;99.90;;;;;;6091640;23;20049;-81
2023/07/18 09:36:21;;;;;;;10.25;2.92;;;20.90;99.90;;;;;;6091649;23;20018;-79
2023/07/18 09:38:48;;;;;;;8.13;2.30;;;20.90;99.90;;;;;;6070528;23;20458;-79
2023/07/18 09:41:16;;;;;;;6.70;2.63;;;21.00;99.90;;;;;;6092279;23;20025;-79
2023/07/18 09:43:46;;;;;;;6.53;2.22;;;21.10;99.90;;;;;;6091555;23;20041;-78
2023/07/18 09:46:13;;;;;;;6.03;2.85;;;21.20;99.90;;;;;;6092508;23;20027;-79
2023/07/18 09:48:44;;;;;;;5.78;3.10;;;21.40;99.90;;;;;;6092259;23;20049;-79
2023/07/18 09:51:20;;;;;;;6.60;2.10;;;21.40;99.90;;;;;;6091897;23;20015;-79
2023/07/18 09:53:47;;;;;;;7.35;2.78;;;21.50;99.90;;;;;;6092252;23;20254;-78
2023/07/18 09:56:16;;;;;;;4.03;2.08;;;21.70;99.90;;;;;;6092397;23;20452;-79
2023/07/18 09:58:44;;;;;;;7.30;2.40;;;21.60;99.90;;;;;;6091985;23;20024;-79
2023/07/18 10:01:19;;;;;;;4.95;2.25;;;21.50;99.90;;;;;;6092095;23;20468;-79
2023/07/18 10:03:46;;;;;;;7.18;2.30;;;21.40;99.90;;;;;;6067880;23;20081;-79
2023/07/18 10:06:13;;;;;;;6.07;2.40;;;21.30;99.90;;;;;;6092312;23;20142;-79
2023/07/18 10:08:40;;;;;;;6.25;2.05;;;21.50;99.90;;;;;;6091813;23;20428;-79
2023/07/18 10:11:11;;;;;;;4.18;1.75;;;21.60;99.90;;;;;;6092008;23;20018;-79
2023/07/18 10:13:41;;;;;;;6.55;2.08;;;21.60;99.90;;;;;;6092570;23;20015;-79
2023/07/18 10:16:18;;;;;;;4.15;2.00;;;21.40;99.90;;;;;;6092409;23;20019;-79
2023/07/18 10:18:48;;;;;;;3.15;1.75;;;21.40;99.90;;;;;;6091722;23;20079;-80
2023/07/18 10:21:35;;;;;;;4.53;1.90;;;21.50;99.90;;;;;;6091424;23;20054;-79
2023/07/18 10:24:23;;;;;;;4.70;1.90;;;21.70;99.90;;;;;;6068705;23;20068;-79
2023/07/18 10:26:52;;;;;;;4.50;2.13;;;21.60;99.90;;;;;;6092523;23;20015;-79
2023/07/18 10:29:18;;;;;;;5.05;2.22;;;21.60;99.90;;;;;;6068351;23;20015;-79
2023/07/18 10:31:44;;;;;;;6.13;2.00;;;21.70;99.90;;;;;;6068935;23;20046;-79
2023/07/18 10:34:14;;;;;;;3.72;2.10;;;21.60;99.90;;;;;;6092808;23;20006;-79
2023/07/18 10:36:53;;;;;;;7.47;2.10;;;21.60;99.90;;;;;;6068843;23;20046;-80
2023/07/18 10:39:19;;;;;;;3.75;1.67;;;21.70;99.90;;;;;;6092091;23;20054;-79
2023/07/18 10:41:45;;;;;;;5.28;1.98;;;21.80;99.90;;;;;;6092657;23;20023;-79
2023/07/18 10:44:14;;;;;;;6.22;1.92;;;21.80;99.90;;;;;;6044320;23;20025;-80
2023/07/18 10:46:40;;;;;;;3.47;1.70;;;21.90;99.90;;;;;;6068368;23;20460;-79
2023/07/18 10:49:06;;;;;;;3.95;1.90;;;22.00;99.90;;;;;;6068377;23;20022;-79
2023/07/18 10:51:35;;;;;;;6.22;2.05;;;22.00;99.90;;;;;;6092498;23;20021;-80
2023/07/18 10:54:02;;;;;;;5.97;1.90;;;22.10;99.90;;;;;;6092690;23;20046;-79
2023/07/18 10:56:28;;;;;;;6.03;1.70;;;22.20;99.90;;;;;;6091132;23;20041;-79
2023/07/18 10:58:57;;;;;;;4.38;1.80;;;22.20;99.90;;;;;;6089886;23;20449;-78
2023/07/18 11:01:25;;;;;;;5.20;2.00;;;22.40;99.90;;;;;;6089909;23;20061;-79
2023/07/18 11:03:50;;;;;;;6.43;1.83;;;22.60;99.90;;;;;;6091285;23;20045;-80
2023/07/18 11:06:16;;;;;;;3.53;1.73;;;22.60;99.90;;;;;;6068830;23;20105;-79
2023/07/18 11:08:45;;;;;;;4.55;2.20;;;22.70;99.90;;;;;;6093090;23;20022;-80
2023/07/18 11:11:14;;;;;;;3.13;1.98;;;22.60;99.90;;;;;;6093140;23;20025;-79
2023/07/18 11:13:43;;;;;;;6.38;1.83;;;22.40;99.90;;;;;;6068632;23;20085;-80
2023/07/18 11:16:12;;;;;;;5.43;1.77;;;22.20;99.90;;;;;;6068709;23;20492;-80
2023/07/18 11:18:41;;;;;;;2.92;1.52;;;22.00;99.90;;;;;;6092227;23;20026;-80
2023/07/18 11:21:08;;;;;;;4.93;1.55;;;21.90;99.90;;;;;;6091920;23;20022;-80
2023/07/18 11:23:35;;;;;;;6.97;1.58;;;21.80;99.90;;;;;;6092010;23;20352;-80
2023/07/18 11:26:12;;;;;;;3.90;1.52;;;21.70;99.90;;;;;;6092746;23;20014;-80
2023/07/18 11:28:40;;;;;;;4.88;1.50;;;21.90;99.90;;;;;;6070298;23;20129;-80
2023/07/18 11:31:06;;;;;;;4.57;1.42;;;22.10;99.90;;;;;;6070454;23;20440;-81
2023/07/18 11:33:32;;;;;;;4.05;1.48;;;22.40;99.90;;;;;;6070681;23;20015;-81
2023/07/18 11:35:58;;;;;;;2.97;1.02;;;22.70;99.90;;;;;;6092717;23;20061;-80
2023/07/18 11:38:33;;;;;;;4.25;1.90;;;22.90;99.90;;;;;;6091395;23;20051;-80
2023/07/18 11:40:59;;;;;;;6.68;1.63;;;23.20;99.90;;;;;;6068620;23;20026;-81
2023/07/18 11:43:31;;;;;;;2.97;1.10;;;23.10;99.90;;;;;;6070023;23;20029;-81
2023/07/18 11:45:57;;;;;;;2.70;1.30;;;23.10;99.90;;;;;;6093548;23;20105;-80
2023/07/18 11:48:25;;;;;;;3.35;1.20;;;23.20;99.90;;;;;;6092316;23;20018;-81
2023/07/18 11:50:51;;;;;;;3.55;1.40;;;23.30;99.90;;;;;;6091038;23;20112;-81
2023/07/18 11:53:27;;;;;;;4.38;1.35;;;23.30;99.90;;;;;;6092360;23;20456;-80
2023/07/18 11:55:55;;;;;;;4.32;1.70;;;23.40;99.90;;;;;;6092356;23;20500;-81
2023/07/18 11:58:21;;;;;;;3.53;1.30;;;23.60;99.90;;;;;;6068989;23;20022;-81
2023/07/18 12:00:47;;;;;;;3.78;1.30;;;23.60;99.90;;;;;;6067748;23;20345;-80
2023/07/18 12:03:13;;;;;;;3.42;1.30;;;23.70;99.90;;;;;;6092454;23;20018;-80
2023/07/18 12:05:39;;;;;;;2.70;1.40;;;23.60;99.90;;;;;;6044690;23;20154;-80
2023/07/18 12:08:04;;;;;;;5.10;1.50;;;23.60;99.90;;;;;;6069078;23;20021;-80
2023/07/18 12:10:32;;;;;;;4.18;1.63;;;23.60;99.90;;;;;;6068844;23;20093;-80
2023/07/18 12:12:58;;;;;;;3.47;1.20;;;23.60;99.90;;;;;;6092113;23;20318;-80
2023/07/18 12:15:23;;;;;;;3.15;1.38;;;23.60;99.90;;;;;;6067738;23;20021;-80
2023/07/18 12:17:50;;;;;;;2.85;1.33;;;23.60;99.90;;;;;;6092064;23;20115;-80
2023/07/18 12:20:15;;;;;;;2.63;1.40;;;23.70;99.90;;;;;;6069329;23;20021;-80
2023/07/18 12:22:41;;;;;;;3.10;1.55;;;23.70;99.90;;;;;;6093316;23;20018;-80
2023/07/18 12:25:08;;;;;;;2.30;1.15;;;23.50;99.90;;;;;;6093616;23;20019;-80
2023/07/18 12:27:33;;;;;;;2.00;1.17;;;23.40;99.90;;;;;;6093149;23;20053;-80
2023/07/18 12:29:59;;;;;;;2.58;1.23;;;23.30;99.90;;;;;;6092747;23;20022;-80
2023/07/18 12:32:25;;;;;;;3.30;1.40;;;23.10;99.90;;;;;;6093558;23;20431;-80
2023/07/18 12:34:51;;;;;;;2.80;1.38;;;23.00;99.90;;;;;;6093175;23;20138;-80
2023/07/18 12:37:17;;;;;;;3.25;1.50;;;22.80;99.90;;;;;;6094024;23;20544;-79
2023/07/18 12:39:43;;;;;;;2.53;1.20;;;22.70;99.90;;;;;;6069094;23;20093;-79